createdAt,value
2017-11-18T00:00:51.754Z,91.50
2017-11-18T00:03:19.319Z,91.50
2017-11-18T00:05:47.654Z,91.40
2017-11-18T00:08:15.246Z,91.40
2017-11-18T00:10:42.806Z,91.30
2017-11-18T00:13:10.374Z,91.50
2017-11-18T00:15:38.720Z,91.70
2017-11-18T00:18:06.275Z,91.70
2017-11-18T00:20:33.830Z,91.70
2017-11-18T00:23:01.384Z,91.70
2017-11-18T00:25:28.956Z,91.80
2017-11-18T00:27:56.518Z,91.70
2017-11-18T00:30:24.080Z,91.70
2017-11-18T00:32:52.408Z,91.80
2017-11-18T00:35:20.746Z,91.70
2017-11-18T00:37:48.361Z,91.70
2017-11-18T00:40:15.930Z,91.70
2017-11-18T00:42:43.501Z,91.70
2017-11-18T00:45:11.060Z,91.60
2017-11-18T00:47:38.651Z,91.60
2017-11-18T00:50:06.223Z,91.60
2017-11-18T00:52:33.793Z,91.60
2017-11-18T00:55:01.349Z,91.60
2017-11-18T00:57:28.920Z,91.60
2017-11-18T00:59:57.269Z,91.70
2017-11-18T01:02:24.910Z,91.70
2017-11-18T01:04:52.484Z,91.90
2017-11-18T01:07:20.047Z,92.00
2017-11-18T01:09:47.647Z,91.90
2017-11-18T01:12:15.966Z,92.20
2017-11-18T01:14:43.544Z,92.20
2017-11-18T01:17:11.109Z,92.20
2017-11-18T01:19:38.705Z,92.20
2017-11-18T01:22:07.027Z,92.00
2017-11-18T01:24:34.610Z,92.00
2017-11-18T01:27:02.169Z,91.90
2017-11-18T01:29:29.729Z,91.90
2017-11-18T01:31:57.371Z,91.80
2017-11-18T01:34:24.916Z,91.80
2017-11-18T01:36:52.506Z,91.80
2017-11-18T01:39:20.099Z,91.90
2017-11-18T01:41:47.671Z,91.90
2017-11-18T01:44:16.010Z,91.90
2017-11-18T01:46:43.589Z,91.90
2017-11-18T01:49:11.185Z,91.90
2017-11-18T01:51:38.725Z,91.90
2017-11-18T01:54:07.089Z,91.80
2017-11-18T01:56:35.435Z,91.80
2017-11-18T01:59:02.985Z,91.80
2017-11-18T02:01:30.590Z,91.90
2017-11-18T02:03:58.135Z,92.00
2017-11-18T02:06:26.559Z,92.10
2017-11-18T02:08:54.898Z,92.10
2017-11-18T02:11:22.495Z,92.10
2017-11-18T02:13:50.842Z,92.20
2017-11-18T02:16:18.412Z,92.20
2017-11-18T02:18:45.979Z,92.20
2017-11-18T02:21:14.327Z,92.20
2017-11-18T02:23:42.673Z,92.20
2017-11-18T02:26:10.278Z,92.50
2017-11-18T02:28:37.832Z,92.10
2017-11-18T02:31:05.426Z,92.10
2017-11-18T02:33:33.949Z,92.40
2017-11-18T02:36:01.599Z,92.40
2017-11-18T02:38:29.208Z,92.40
2017-11-18T02:40:56.787Z,92.40
2017-11-18T02:43:25.137Z,92.40
2017-11-18T02:45:52.759Z,92.70
2017-11-18T02:48:20.333Z,92.30
2017-11-18T02:50:47.956Z,92.40
2017-11-18T02:53:16.306Z,92.40
2017-11-18T02:55:43.929Z,92.40
2017-11-18T02:58:11.500Z,92.40
2017-11-18T03:00:39.838Z,92.30
2017-11-18T03:03:08.187Z,92.30
2017-11-18T03:05:35.773Z,92.30
2017-11-18T03:08:03.348Z,92.40
2017-11-18T03:10:30.961Z,92.30
2017-11-18T03:12:58.545Z,92.20
2017-11-18T03:15:26.128Z,92.30
2017-11-18T03:17:53.715Z,92.40
2017-11-18T03:20:21.277Z,92.40
2017-11-18T03:22:48.840Z,92.50
2017-11-18T03:25:16.415Z,92.50
2017-11-18T03:27:43.982Z,92.60
2017-11-18T03:30:11.578Z,92.60
2017-11-18T03:32:39.928Z,92.60
2017-11-18T03:35:07.495Z,92.60
2017-11-18T03:37:35.838Z,92.50
2017-11-18T03:40:03.440Z,92.80
2017-11-18T03:42:31.019Z,92.50
2017-11-18T03:44:58.610Z,92.50
2017-11-18T03:47:26.962Z,92.70
2017-11-18T03:49:54.513Z,92.60
2017-11-18T03:52:22.063Z,92.50
2017-11-18T03:54:49.625Z,92.80
2017-11-18T03:57:17.219Z,92.70
2017-11-18T03:59:44.811Z,92.80
2017-11-18T04:02:13.137Z,92.90
2017-11-18T04:04:40.716Z,92.90
2017-11-18T04:07:08.285Z,93.00
2017-11-18T04:09:35.867Z,93.10
2017-11-18T04:12:04.185Z,93.20
2017-11-18T04:14:31.779Z,93.20
2017-11-18T04:16:59.343Z,93.20
2017-11-18T04:19:26.929Z,93.10
2017-11-18T04:21:55.246Z,93.10
2017-11-18T04:24:22.840Z,93.10
2017-11-18T04:26:50.441Z,93.20
2017-11-18T04:29:18.010Z,93.20
2017-11-18T04:31:45.559Z,93.20
2017-11-18T04:34:13.140Z,93.30
2017-11-18T04:36:40.708Z,93.20
2017-11-18T04:39:08.278Z,93.20
2017-11-18T04:41:35.866Z,93.30
2017-11-18T04:44:03.475Z,93.20
2017-11-18T04:46:31.067Z,92.90
2017-11-18T04:48:58.644Z,93.30
2017-11-18T04:51:26.236Z,93.30
2017-11-18T04:53:54.572Z,93.40
2017-11-18T04:56:22.128Z,93.40
2017-11-18T04:58:49.725Z,93.40
2017-11-18T05:01:18.059Z,93.30
2017-11-18T05:03:45.630Z,93.30
2017-11-18T05:06:13.199Z,93.30
2017-11-18T05:08:40.818Z,93.20
2017-11-18T05:11:08.372Z,93.30
2017-11-18T05:13:35.950Z,93.10
2017-11-18T05:16:03.556Z,93.10
2017-11-18T05:18:31.162Z,93.20
2017-11-18T05:20:58.756Z,93.00
2017-11-18T05:23:26.302Z,93.40
2017-11-18T05:25:53.870Z,93.60
2017-11-18T05:28:21.450Z,93.70
2017-11-18T05:30:49.014Z,93.50
2017-11-18T05:33:16.604Z,93.60
2017-11-18T05:35:44.930Z,93.40
2017-11-18T05:38:12.542Z,93.30
2017-11-18T05:40:40.867Z,93.30
2017-11-18T05:43:08.436Z,93.30
2017-11-18T05:45:35.990Z,93.30
2017-11-18T05:48:03.560Z,93.20
2017-11-18T05:50:31.117Z,93.30
2017-11-18T05:52:58.718Z,93.30
2017-11-18T05:55:27.048Z,93.20
2017-11-18T05:57:54.696Z,93.20
2017-11-18T06:00:22.267Z,93.20
2017-11-18T06:02:49.836Z,93.20
2017-11-18T06:05:17.419Z,93.30
2017-11-18T06:07:44.988Z,93.20
2017-11-18T06:10:13.324Z,93.20
2017-11-18T06:12:40.907Z,93.20
2017-11-18T06:15:08.476Z,93.20
2017-11-18T06:17:36.079Z,93.20
2017-11-18T06:20:03.660Z,93.30
2017-11-18T06:22:31.229Z,93.20
2017-11-18T06:24:58.789Z,93.20
2017-11-18T06:27:26.403Z,93.10
2017-11-18T06:29:54.727Z,93.30
2017-11-18T06:32:22.379Z,93.20
2017-11-18T06:34:49.951Z,93.20
2017-11-18T06:37:17.527Z,93.30
2017-11-18T06:39:45.090Z,93.20
2017-11-18T06:42:12.639Z,93.30
2017-11-18T06:44:40.236Z,93.40
2017-11-18T06:47:08.556Z,93.30
2017-11-18T06:49:36.121Z,93.30
2017-11-18T06:52:03.781Z,93.20
2017-11-18T06:54:32.120Z,93.20
2017-11-18T06:57:00.455Z,93.20
2017-11-18T06:59:28.100Z,93.10
2017-11-18T07:01:55.686Z,93.10
2017-11-18T07:04:23.254Z,93.10
2017-11-18T07:06:50.833Z,93.00
2017-11-18T07:09:19.170Z,93.00
2017-11-18T07:11:46.752Z,93.00
2017-11-18T07:14:14.317Z,92.90
2017-11-18T07:16:41.884Z,92.90
2017-11-18T07:19:09.465Z,92.80
2017-11-18T07:21:37.786Z,92.80
2017-11-18T07:24:05.376Z,92.80
2017-11-18T07:26:33.031Z,92.80
2017-11-18T07:29:00.649Z,92.80
2017-11-18T07:31:28.937Z,92.70
2017-11-18T07:33:56.484Z,92.60
2017-11-18T07:36:24.070Z,92.70
2017-11-18T07:38:52.392Z,92.80
2017-11-18T07:41:21.253Z,92.80
2017-11-18T07:43:48.854Z,93.10
2017-11-18T07:46:16.809Z,93.00
2017-11-18T07:48:44.486Z,92.90
2017-11-18T07:51:12.093Z,92.90
2017-11-18T07:53:39.655Z,93.00
2017-11-18T07:56:07.206Z,92.90
2017-11-18T07:58:34.800Z,92.90
2017-11-18T08:01:02.415Z,92.70
2017-11-18T08:03:30.005Z,93.00
2017-11-18T08:05:58.365Z,92.50
2017-11-18T08:08:25.929Z,92.50
2017-11-18T08:10:53.483Z,92.10
2017-11-18T08:13:21.068Z,92.20
2017-11-18T08:15:49.385Z,92.10
2017-11-18T08:18:16.969Z,92.10
2017-11-18T08:20:44.534Z,92.20
2017-11-18T08:23:12.119Z,91.80
2017-11-18T08:25:40.471Z,91.30
2017-11-18T08:28:08.036Z,91.30
2017-11-18T08:30:35.882Z,91.20
2017-11-18T08:33:03.436Z,91.20
2017-11-18T08:35:31.017Z,91.40
2017-11-18T08:37:58.588Z,91.50
2017-11-18T08:40:26.158Z,91.60
2017-11-18T08:42:54.512Z,91.40
2017-11-18T08:45:22.108Z,91.40
2017-11-18T08:47:50.469Z,91.20
2017-11-18T08:50:18.056Z,91.20
2017-11-18T08:52:46.425Z,91.00
2017-11-18T08:55:14.771Z,90.70
2017-11-18T08:57:43.124Z,90.50
2017-11-18T09:00:10.728Z,90.50
2017-11-18T09:02:38.325Z,90.50
2017-11-18T09:05:05.921Z,90.50
2017-11-18T09:07:33.515Z,90.40
2017-11-18T09:10:01.101Z,90.40
2017-11-18T09:12:28.702Z,90.30
2017-11-18T09:14:56.293Z,90.30
2017-11-18T09:17:23.855Z,90.10
2017-11-18T09:19:51.407Z,89.20
2017-11-18T09:22:19.001Z,89.70
2017-11-18T09:24:46.578Z,89.50
2017-11-18T09:27:14.147Z,89.90
2017-11-18T09:29:41.706Z,89.60
2017-11-18T09:32:09.280Z,88.80
2017-11-18T09:34:36.853Z,87.80
2017-11-18T09:37:04.423Z,87.70
2017-11-18T09:39:31.985Z,86.60
2017-11-18T09:41:59.605Z,87.10
2017-11-18T09:44:28.377Z,86.00
2017-11-18T09:46:56.771Z,85.00
2017-11-18T09:49:24.350Z,85.20
2017-11-18T09:51:51.952Z,85.40
2017-11-18T09:54:19.559Z,85.50
2017-11-18T09:56:47.110Z,85.00
2017-11-18T09:59:15.648Z,84.90
2017-11-18T10:01:43.234Z,84.20
2017-11-18T10:04:11.589Z,83.50
2017-11-18T10:06:39.170Z,83.40
2017-11-18T10:09:07.514Z,83.70
2017-11-18T10:11:35.965Z,83.60
2017-11-18T10:14:03.544Z,82.30
2017-11-18T10:16:31.123Z,82.50
2017-11-18T10:18:58.686Z,82.80
2017-11-18T10:21:26.240Z,82.60
2017-11-18T10:23:53.804Z,82.80
2017-11-18T10:26:21.359Z,82.80
2017-11-18T10:28:48.930Z,82.30
2017-11-18T10:31:16.493Z,82.30
2017-11-18T10:33:44.069Z,81.60
2017-11-18T10:36:12.411Z,77.40
2017-11-18T10:38:39.958Z,77.40
2017-11-18T10:41:07.531Z,77.60
2017-11-18T10:43:35.095Z,77.60
2017-11-18T10:46:02.666Z,75.30
2017-11-18T10:48:30.218Z,73.50
2017-11-18T10:50:57.832Z,70.90
2017-11-18T10:53:25.414Z,71.20
2017-11-18T10:55:53.010Z,72.10
2017-11-18T10:58:20.585Z,72.60
2017-11-18T11:00:48.933Z,72.30
2017-11-18T11:03:16.525Z,72.30
2017-11-18T11:05:44.880Z,69.20
2017-11-18T11:08:12.491Z,69.20
2017-11-18T11:10:40.076Z,69.40
2017-11-18T11:13:07.656Z,67.50
2017-11-18T11:15:43.140Z,67.60
2017-11-18T11:18:10.754Z,68.90
2017-11-18T11:20:38.327Z,69.60
2017-11-18T11:23:05.909Z,69.70
2017-11-18T11:25:34.246Z,69.90
2017-11-18T11:28:01.815Z,69.90
2017-11-18T11:30:29.414Z,70.10
2017-11-18T11:32:57.738Z,70.90
2017-11-18T11:35:25.323Z,70.90
2017-11-18T11:37:52.958Z,71.60
2017-11-18T11:40:20.515Z,72.90
2017-11-18T11:42:48.067Z,71.90
2017-11-18T11:45:15.648Z,67.80
2017-11-18T11:47:43.201Z,63.50
2017-11-18T11:50:10.773Z,63.20
2017-11-18T11:52:38.414Z,63.10
2017-11-18T11:55:05.985Z,62.00
2017-11-18T11:57:33.544Z,63.30
2017-11-18T12:00:01.115Z,65.20
2017-11-18T12:02:28.669Z,64.30
2017-11-18T12:04:56.226Z,62.50
2017-11-18T12:07:23.853Z,63.30
2017-11-18T12:09:51.422Z,62.60
2017-11-18T12:12:19.002Z,61.30
2017-11-18T12:14:46.551Z,61.50
2017-11-18T12:17:14.162Z,62.60
2017-11-18T12:19:41.738Z,62.20
2017-11-18T12:22:10.085Z,62.80
2017-11-18T12:24:37.662Z,62.80
2017-11-18T12:27:06.742Z,63.60
2017-11-18T12:29:34.348Z,63.50
2017-11-18T12:32:01.940Z,62.80
2017-11-18T12:34:29.514Z,62.50
2017-11-18T12:36:57.072Z,63.10
2017-11-18T12:39:24.673Z,62.30
2017-11-18T12:41:53.023Z,62.90
2017-11-18T12:44:20.624Z,62.90
2017-11-18T12:46:48.941Z,63.80
2017-11-18T12:49:16.548Z,63.80
2017-11-18T12:51:45.043Z,64.40
2017-11-18T12:54:13.402Z,65.00
2017-11-18T12:56:40.967Z,65.00
2017-11-18T12:59:09.328Z,62.80
2017-11-18T13:01:36.936Z,62.80
2017-11-18T13:04:04.514Z,62.90
2017-11-18T13:06:32.100Z,63.50
2017-11-18T13:08:59.902Z,63.90
2017-11-18T13:11:27.513Z,63.00
2017-11-18T13:13:55.083Z,63.60
2017-11-18T13:16:22.652Z,63.20
2017-11-18T13:18:52.299Z,63.60
2017-11-18T13:21:20.633Z,65.10
2017-11-18T13:23:48.182Z,65.10
2017-11-18T13:26:15.769Z,65.60
2017-11-18T13:28:43.328Z,65.80
2017-11-18T13:31:10.924Z,66.20
2017-11-18T13:33:39.241Z,66.10
2017-11-18T13:36:06.823Z,66.10
2017-11-18T13:38:34.406Z,66.20
2017-11-18T13:41:02.030Z,67.10
2017-11-18T13:43:29.633Z,67.50
2017-11-18T13:45:57.228Z,68.10
2017-11-18T13:48:24.799Z,67.70
2017-11-18T13:50:53.114Z,67.60
2017-11-18T13:53:20.698Z,67.60
2017-11-18T13:55:48.316Z,67.00
2017-11-18T13:58:15.899Z,65.90
2017-11-18T14:00:44.307Z,65.90
2017-11-18T14:03:11.881Z,64.00
2017-11-18T14:05:39.477Z,64.30
2017-11-18T14:08:07.818Z,64.30
2017-11-18T14:10:35.404Z,64.30
2017-11-18T14:13:03.758Z,63.40
2017-11-18T14:15:31.365Z,63.30
2017-11-18T14:17:58.963Z,62.40
2017-11-18T14:20:26.563Z,63.20
2017-11-18T14:22:54.928Z,62.70
2017-11-18T14:25:22.502Z,62.60
2017-11-18T14:27:50.839Z,62.10
2017-11-18T14:30:18.447Z,62.10
2017-11-18T14:32:46.790Z,63.80
2017-11-18T14:35:15.163Z,63.80
2017-11-18T14:37:42.751Z,63.80
2017-11-18T14:40:10.337Z,64.60
2017-11-18T14:42:38.715Z,64.90
2017-11-18T14:45:06.316Z,64.90
2017-11-18T14:47:33.897Z,65.30
2017-11-18T14:50:01.510Z,66.20
2017-11-18T14:52:29.119Z,65.90
2017-11-18T14:54:56.798Z,67.10
2017-11-18T14:57:24.379Z,67.30
2017-11-18T14:59:52.035Z,68.40
2017-11-18T15:02:20.406Z,68.60
2017-11-18T15:04:48.805Z,68.70
2017-11-18T15:07:16.437Z,68.60
2017-11-18T15:09:44.153Z,68.50
2017-11-18T15:12:11.799Z,68.30
2017-11-18T15:14:45.123Z,68.00
2017-11-18T15:17:18.260Z,68.40
2017-11-18T15:19:52.361Z,68.00
2017-11-18T15:22:25.636Z,67.90
2017-11-18T15:24:59.020Z,68.00
2017-11-18T15:27:32.136Z,68.20
2017-11-18T15:30:16.539Z,68.00
2017-11-18T15:33:01.575Z,68.40
2017-11-18T15:35:31.687Z,68.40
2017-11-18T15:38:02.868Z,68.10
2017-11-18T15:40:31.223Z,68.80
2017-11-18T15:43:01.449Z,68.80
2017-11-18T15:45:29.827Z,68.80
2017-11-18T15:48:03.091Z,68.80
2017-11-18T15:50:36.300Z,68.20
2017-11-18T15:53:20.572Z,67.30
2017-11-18T15:55:53.836Z,67.80
2017-11-18T15:58:22.205Z,67.90
2017-11-18T16:00:55.409Z,67.90
2017-11-18T16:03:23.730Z,67.60
2017-11-18T16:05:52.092Z,68.10
2017-11-18T16:08:19.748Z,68.80
2017-11-18T16:10:47.346Z,67.80
2017-11-18T16:13:15.691Z,67.80
2017-11-18T16:15:43.269Z,67.70
2017-11-18T16:18:11.654Z,68.00
2017-11-18T16:20:40.041Z,68.40
2017-11-18T16:23:08.388Z,67.90
2017-11-18T16:25:35.979Z,67.90
2017-11-18T16:28:04.316Z,68.30
2017-11-18T16:30:31.901Z,68.30
2017-11-18T16:33:00.284Z,69.10
2017-11-18T16:35:28.652Z,69.30
2017-11-18T16:37:56.225Z,69.30
2017-11-18T16:40:23.812Z,68.70
2017-11-18T16:42:51.451Z,68.90
2017-11-18T16:45:19.023Z,69.00
2017-11-18T16:47:47.424Z,69.30
2017-11-18T16:50:15.001Z,69.30
2017-11-18T16:52:42.624Z,69.30
2017-11-18T16:55:10.241Z,69.20
2017-11-18T16:57:37.846Z,69.50
2017-11-18T17:00:06.209Z,69.80
2017-11-18T17:02:33.815Z,69.80
2017-11-18T17:05:01.425Z,69.20
2017-11-18T17:07:29.035Z,69.40
2017-11-18T17:09:56.620Z,69.10
2017-11-18T17:12:24.204Z,69.00
2017-11-18T17:14:51.839Z,69.10
2017-11-18T17:17:19.442Z,69.40
2017-11-18T17:19:47.852Z,68.80
2017-11-18T17:22:15.451Z,68.80
2017-11-18T17:24:43.071Z,69.00
2017-11-18T17:27:10.663Z,69.30
2017-11-18T17:29:38.252Z,69.20
2017-11-18T17:32:05.991Z,69.00
2017-11-18T17:34:33.582Z,69.20
2017-11-18T17:37:01.171Z,69.40
2017-11-18T17:39:28.766Z,70.20
2017-11-18T17:41:56.360Z,69.70
2017-11-18T17:44:23.981Z,69.80
2017-11-18T17:46:51.586Z,69.80
2017-11-18T17:49:19.337Z,69.70
2017-11-18T17:51:46.940Z,70.10
2017-11-18T17:54:14.569Z,70.10
2017-11-18T17:56:42.399Z,70.50
2017-11-18T17:59:10.163Z,70.60
2017-11-18T18:01:37.807Z,70.50
2017-11-18T18:04:05.411Z,70.80
2017-11-18T18:06:33.306Z,70.50
2017-11-18T18:09:01.986Z,70.30
2017-11-18T18:11:29.771Z,70.30
2017-11-18T18:13:58.144Z,70.80
2017-11-18T18:16:26.509Z,70.80
2017-11-18T18:18:54.936Z,70.80
2017-11-18T18:21:23.232Z,70.80
2017-11-18T18:23:51.318Z,71.10
2017-11-18T18:26:18.925Z,71.00
2017-11-18T18:28:46.536Z,71.20
2017-11-18T18:31:14.336Z,71.80
2017-11-18T18:33:42.979Z,71.70
2017-11-18T18:36:10.918Z,71.60
2017-11-18T18:38:38.480Z,71.90
2017-11-18T18:41:06.292Z,71.90
2017-11-18T18:43:34.705Z,72.10
2017-11-18T18:46:03.318Z,72.10
2017-11-18T18:48:31.164Z,72.10
2017-11-18T18:50:59.115Z,71.70
2017-11-18T18:53:26.819Z,72.10
2017-11-18T18:55:54.556Z,72.00
2017-11-18T18:58:23.048Z,72.10
2017-11-18T19:00:50.869Z,72.00
2017-11-18T19:03:18.647Z,72.20
2017-11-18T19:05:46.697Z,72.00
2017-11-18T19:08:14.691Z,72.20
2017-11-18T19:10:42.349Z,72.20
2017-11-18T19:13:10.634Z,72.20
2017-11-18T19:15:38.319Z,72.50
2017-11-18T19:18:05.971Z,71.70
2017-11-18T19:20:34.373Z,72.40
2017-11-18T19:23:01.948Z,72.40
2017-11-18T19:25:29.693Z,72.30
2017-11-18T19:27:57.745Z,72.20
2017-11-18T19:30:25.370Z,72.30
2017-11-18T19:32:52.986Z,72.00
2017-11-18T19:35:20.725Z,71.90
2017-11-18T19:37:49.001Z,72.20
2017-11-18T19:40:16.861Z,72.30
2017-11-18T19:42:45.236Z,71.90
2017-11-18T19:45:12.825Z,71.90
2017-11-18T19:47:41.208Z,71.60
2017-11-18T19:50:09.993Z,71.90
2017-11-18T19:52:38.023Z,71.90
2017-11-18T19:55:05.633Z,71.60
2017-11-18T19:57:33.974Z,71.70
2017-11-18T20:00:01.581Z,71.70
2017-11-18T20:02:29.146Z,72.00
2017-11-18T20:04:56.870Z,71.50
2017-11-18T20:07:24.489Z,71.10
2017-11-18T20:09:52.160Z,71.00
2017-11-18T20:12:19.869Z,71.10
2017-11-18T20:14:48.318Z,72.30
2017-11-18T20:17:15.940Z,71.40
2017-11-18T20:19:43.532Z,71.70
2017-11-18T20:22:11.299Z,72.10
2017-11-18T20:24:39.064Z,71.80
2017-11-18T20:27:06.673Z,71.90
2017-11-18T20:29:35.019Z,71.80
2017-11-18T20:32:02.731Z,71.90
2017-11-18T20:34:30.412Z,71.70
2017-11-18T20:36:58.117Z,71.80
2017-11-18T20:39:25.694Z,71.60
2017-11-18T20:41:53.374Z,71.50
2017-11-18T20:44:21.086Z,71.60
2017-11-18T20:46:48.787Z,71.40
2017-11-18T20:49:16.413Z,71.50
2017-11-18T20:51:44.011Z,71.70
2017-11-18T20:54:12.376Z,71.30
2017-11-18T20:56:39.998Z,71.30
2017-11-18T20:59:07.984Z,70.90
2017-11-18T21:01:36.603Z,71.00
2017-11-18T21:04:05.150Z,71.20
2017-11-18T21:06:32.759Z,71.20
2017-11-18T21:09:01.127Z,70.70
2017-11-18T21:11:28.700Z,70.70
2017-11-18T21:13:57.040Z,70.80
2017-11-18T21:16:24.616Z,70.80
2017-11-18T21:18:52.183Z,70.90
2017-11-18T21:21:19.773Z,70.70
2017-11-18T21:23:48.123Z,70.90
2017-11-18T21:26:15.723Z,70.90
2017-11-18T21:28:43.310Z,71.10
2017-11-18T21:31:10.890Z,71.40
2017-11-18T21:33:38.460Z,71.90
2017-11-18T21:36:06.053Z,72.10
2017-11-18T21:38:34.396Z,72.10
2017-11-18T21:41:01.999Z,71.90
2017-11-18T21:43:29.606Z,71.70
2017-11-18T21:45:57.214Z,71.90
2017-11-18T21:48:25.553Z,71.60
2017-11-18T21:50:53.103Z,71.60
2017-11-18T21:53:23.524Z,71.20
2017-11-18T21:55:51.096Z,71.50
2017-11-18T21:58:18.683Z,71.30
2017-11-18T22:00:47.046Z,72.10
2017-11-18T22:03:14.644Z,72.10
2017-11-18T22:05:42.979Z,72.60
2017-11-18T22:08:10.586Z,72.60
2017-11-18T22:10:38.940Z,72.40
2017-11-18T22:13:06.518Z,72.50
2017-11-18T22:15:34.846Z,72.80
2017-11-18T22:18:02.419Z,72.80
2017-11-18T22:20:29.998Z,72.80
2017-11-18T22:22:57.575Z,73.10
2017-11-18T22:25:27.694Z,74.50
2017-11-18T22:27:56.041Z,74.20
2017-11-18T22:30:23.721Z,74.20
2017-11-18T22:32:52.043Z,75.30
2017-11-18T22:35:19.662Z,75.20
2017-11-18T22:37:47.251Z,75.40
2017-11-18T22:40:14.805Z,76.20
2017-11-18T22:42:43.144Z,76.70
2017-11-18T22:45:10.710Z,76.70
2017-11-18T22:47:38.310Z,76.80
2017-11-18T22:50:06.636Z,78.10
2017-11-18T22:52:34.213Z,77.50
2017-11-18T22:55:01.793Z,78.00
2017-11-18T22:57:30.143Z,79.00
2017-11-18T22:59:57.757Z,79.00
2017-11-18T23:02:25.349Z,79.70
2017-11-18T23:04:52.946Z,79.70
2017-11-18T23:07:20.539Z,80.20
2017-11-18T23:09:48.859Z,81.00
2017-11-18T23:12:16.434Z,81.00
2017-11-18T23:14:44.015Z,81.50
2017-11-18T23:17:12.349Z,82.10
2017-11-18T23:19:39.902Z,82.00
2017-11-18T23:22:07.488Z,82.70
2017-11-18T23:24:35.066Z,83.20
2017-11-18T23:27:03.421Z,83.90
2017-11-18T23:29:31.004Z,83.80
2017-11-18T23:31:58.577Z,84.30
2017-11-18T23:34:26.936Z,84.80
2017-11-18T23:36:54.569Z,84.80
2017-11-18T23:39:22.239Z,84.80
2017-11-18T23:41:49.821Z,84.80
2017-11-18T23:44:17.372Z,85.00
2017-11-18T23:46:44.958Z,85.30
2017-11-18T23:49:13.961Z,85.60
2017-11-18T23:51:42.309Z,85.70
2017-11-18T23:54:09.949Z,85.70
2017-11-18T23:56:37.525Z,86.10
2017-11-18T23:59:05.065Z,86.20
